Ansonia, Pennsylvania
Current Conditions -  °F | °C
As of 7:35 AM on Saturday 25 Oct 2014 (Local Time) from KN38 Reporting Station
Overcast Overcast  
Wind Chill: 41°   Ceiling: 3100
Heat Index: 45°   Visibility: 10mi
Dew Point: 39°   Wind: 7mph
Humidity: 81%   Direction: 190°S
Pressure: 29.9"   Gusts: NA
Location:  41.7308°N, 77.349°W
Report Text: KN38 251135Z AUTO 19006KT 10SM OVC031 07/04 A2990 RMK AO2
Loading
Personal Weather Stations






























Interactive Weather Map
Tropical Storm Tracking
New forecast layout! Learn more

10-Day Weather Forecast

Advertisements
Track Severe Weather on mobile